»·PEaware :: DAL781 KEGE-KSLC

DAL781 :: KEGE-KSLC

FLIGHT INFORMATION

Flight Status: Arrived
Operator:
Delta Air Lines
More flights by this operator :: More flights under this callsign
Pilot: Anonymous 14167 (14167)
Aircraft: BOEING 757-200
(B752)
More flights by this aircraft type
Origin: KEGE Eagle Co Regl
United States
Destination: KSLC Salt Lake City Intl
United States
More flights between these airports :: More routes between these airports
Route: EKR2 EKR LEEHY5
File this flight plan on PilotEdge
Remarks:
Altitude:
(Current/Filed)
30,000ft
Speed:
(Current/Filed)
437kts
Departed: 05-May-18 06:43 PM
Arrived: 05-May-18 07:42 PM
Distance/Time
Traveled:
241nm/0:59
Distance/Time
To Go:
Arrived

Flight Plot

Page will automatically refresh every two minutes.

Flight plan parsing failed; only flown route is shown


Map Options




Map Legend


Flown Route
Filed Route
Departure Airport
Arrival Airport
Navaid (VOR, NDB)
Fix

Horizontal Profiles

Position Reports

Time Latitude Longitude Heading Altitude Ground
Speed
05-May-18 18:18 39.640673 -106.914123 171 6558ft 0kts
05-May-18 18:19 39.640673 -106.914123 171 6558ft 0kts
05-May-18 18:20 39.640673 -106.914123 171 6558ft 0kts
05-May-18 18:21 39.640673 -106.914123 171 6558ft 0kts
05-May-18 18:22 39.640673 -106.914123 171 6558ft 0kts
05-May-18 18:23 39.640673 -106.914123 171 6558ft 0kts
05-May-18 18:24 39.640673 -106.914123 171 6558ft 0kts
05-May-18 18:25 39.640673 -106.914123 171 6558ft 0kts
05-May-18 18:26 39.640673 -106.914123 171 6558ft 0kts
05-May-18 18:27 39.640673 -106.914123 171 6558ft 0kts
05-May-18 18:28 39.640673 -106.914123 171 6558ft 0kts
05-May-18 18:29 39.640673 -106.914123 171 6558ft 0kts
05-May-18 18:30 39.640673 -106.914123 172 6558ft 0kts
05-May-18 18:31 39.640672 -106.914123 171 6558ft 0kts
05-May-18 18:32 39.640672 -106.914123 171 6558ft 0kts
05-May-18 18:33 39.640673 -106.914123 171 6558ft 0kts
05-May-18 18:34 39.640673 -106.914123 171 6558ft 0kts
05-May-18 18:35 39.640782 -106.914143 171 6558ft 2kts
05-May-18 18:36 39.641260 -106.914353 100 6558ft 2kts
05-May-18 18:37 39.641261 -106.914467 80 6558ft 0kts
05-May-18 18:38 39.641261 -106.914467 80 6558ft 0kts
05-May-18 18:39 39.641764 -106.914040 34 6558ft 5kts
05-May-18 18:40 39.642260 -106.911424 81 6558ft 9kts
05-May-18 18:41 39.642649 -106.907598 81 6558ft 12kts
05-May-18 18:42 39.643164 -106.902806 82 6558ft 13kts
05-May-18 18:43 39.644111 -106.904572 262 6558ft 46kts
05-May-18 18:44 39.630121 -106.950133 229 8637ft 167kts
05-May-18 18:45 39.599298 -107.003170 255 11836ft 198kts
05-May-18 18:46 39.632030 -107.037521 359 14110ft 183kts
05-May-18 18:47 39.688930 -107.049420 336 15731ft 249kts
05-May-18 18:48 39.761132 -107.096174 330 18164ft 309kts
05-May-18 18:49 39.821717 -107.170260 297 21773ft 310kts
05-May-18 18:50 39.857876 -107.272551 293 24900ft 316kts
05-May-18 18:51 39.892453 -107.378801 293 27533ft 326kts
05-May-18 18:52 39.928085 -107.489758 294 29356ft 350kts
05-May-18 18:53 39.966371 -107.609643 294 30306ft 380kts
05-May-18 18:54 40.005024 -107.731254 293 30309ft 375kts
05-May-18 18:55 40.044965 -107.857422 293 30308ft 377kts
05-May-18 18:56 40.068879 -107.990191 276 30310ft 386kts
05-May-18 18:57 40.075857 -108.129406 276 30306ft 387kts
05-May-18 18:58 40.082147 -108.269556 275 30306ft 388kts
05-May-18 18:59 40.088195 -108.409971 275 30237ft 387kts
05-May-18 19:00 40.094040 -108.549863 275 30231ft 387kts
05-May-18 19:01 40.099607 -108.686992 275 30237ft 388kts
05-May-18 19:02 40.105039 -108.824689 274 30240ft 388kts
05-May-18 19:03 40.110364 -108.965613 274 30239ft 388kts
05-May-18 19:04 40.115806 -109.105877 274 30238ft 388kts
05-May-18 19:05 40.121427 -109.246800 275 30237ft 388kts
05-May-18 19:06 40.127772 -109.388134 275 30236ft 390kts
05-May-18 19:07 40.134407 -109.529569 275 30227ft 390kts
05-May-18 19:08 40.141252 -109.669071 274 29347ft 386kts
05-May-18 19:09 40.146562 -109.771506 274 28788ft 394kts
05-May-18 19:10 40.154770 -109.912944 275 28011ft 395kts
05-May-18 19:11 40.163658 -110.055822 275 27220ft 396kts
05-May-18 19:12 40.173140 -110.199123 275 26421ft 397kts
05-May-18 19:13 40.183471 -110.342274 275 25617ft 399kts
05-May-18 19:14 40.194840 -110.486088 275 24797ft 396kts
05-May-18 19:15 40.191673 -110.628463 265 23980ft 391kts
05-May-18 19:16 40.183636 -110.766313 265 23184ft 375kts
05-May-18 19:17 40.176494 -110.899245 265 22339ft 369kts
05-May-18 19:18 40.147042 -111.025828 255 21463ft 364kts
05-May-18 19:19 40.136392 -111.155174 267 20723ft 359kts
05-May-18 19:20 40.133988 -111.285659 267 20011ft 355kts
05-May-18 19:21 40.131481 -111.414174 269 19300ft 354kts
05-May-18 19:22 40.131120 -111.542698 278 19189ft 355kts
05-May-18 19:23 40.170286 -111.659738 293 18647ft 356kts
05-May-18 19:24 40.212959 -111.775253 293 18053ft 354kts
05-May-18 19:25 40.255712 -111.891594 293 17451ft 353kts
05-May-18 19:26 40.321843 -111.977632 327 16449ft 323kts
05-May-18 19:27 40.398096 -112.035491 328 15350ft 316kts
05-May-18 19:28 40.481513 -112.059226 353 13983ft 305kts
05-May-18 19:29 40.560449 -112.069869 353 12420ft 289kts
05-May-18 19:30 40.639524 -112.080334 354 11034ft 282kts
05-May-18 19:31 40.715621 -112.089157 354 10995ft 269kts
05-May-18 19:32 40.786814 -112.097507 354 11000ft 256kts
05-May-18 19:33 40.856696 -112.105789 353 10270ft 235kts
05-May-18 19:34 40.919578 -112.113267 354 9268ft 224kts
05-May-18 19:35 40.975396 -112.103625 57 8283ft 207kts
05-May-18 19:36 40.975094 -112.034931 106 7615ft 188kts
05-May-18 19:37 40.949564 -111.986808 184 7512ft 152kts
05-May-18 19:38 40.909050 -111.989447 178 6895ft 153kts
05-May-18 19:39 40.866222 -111.983631 174 5742ft 168kts
05-May-18 19:39 40.827017 -111.979189 173 4733ft 168kts
05-May-18 19:40 40.784393 -111.974127 174 4239ft 113kts
05-May-18 19:41 40.775777 -111.973693 226 4238ft 10kts

Navigation Log

Ident Type
Flight plan parsing failed, navigation log unavailable